createdAt,value
2018-10-21T00:01:46.319Z,26.90
2018-10-21T00:04:20.277Z,22.63
2018-10-21T00:06:53.036Z,23.73
2018-10-21T00:09:25.646Z,18.93
2018-10-21T00:11:59.109Z,22.83
2018-10-21T00:14:47.327Z,24.67
2018-10-21T00:17:27.630Z,23.43
2018-10-21T00:20:01.808Z,15.13
2018-10-21T00:22:34.621Z,20.97
2018-10-21T00:25:10.617Z,19.70
2018-10-21T00:27:43.789Z,18.87
2018-10-21T00:30:22.571Z,18.97
2018-10-21T00:32:55.895Z,20.57
2018-10-21T00:35:28.711Z,23.18
2018-10-21T00:38:06.579Z,23.70
2018-10-21T00:40:39.749Z,17.93
2018-10-21T00:43:12.721Z,19.20
2018-10-21T00:45:45.753Z,19.37
2018-10-21T00:48:18.524Z,20.63
2018-10-21T00:50:51.383Z,18.43
2018-10-21T00:53:23.985Z,18.97
2018-10-21T00:55:56.907Z,17.00
2018-10-21T00:58:30.289Z,18.25
2018-10-21T01:01:03.138Z,18.13
2018-10-21T01:03:35.880Z,20.57
2018-10-21T01:06:08.950Z,20.37
2018-10-21T01:08:41.775Z,19.27
2018-10-21T01:11:15.121Z,20.90
2018-10-21T01:13:47.958Z,19.67
2018-10-21T01:16:21.178Z,22.73
2018-10-21T01:18:58.213Z,20.40
2018-10-21T01:21:31.165Z,17.62
2018-10-21T01:24:04.044Z,17.27
2018-10-21T01:26:37.011Z,16.93
2018-10-21T01:29:09.856Z,16.53
2018-10-21T01:31:43.375Z,18.53
2018-10-21T01:34:17.378Z,17.45
2018-10-21T01:36:50.827Z,18.43
2018-10-21T01:39:32.887Z,19.47
2018-10-21T01:42:06.081Z,24.40
2018-10-21T01:44:39.831Z,19.43
2018-10-21T01:47:12.759Z,17.70
2018-10-21T01:49:45.988Z,19.37
2018-10-21T01:52:18.804Z,22.47
2018-10-21T01:54:52.111Z,23.93
2018-10-21T01:57:28.380Z,21.23
2018-10-21T02:00:01.257Z,28.27
2018-10-21T02:02:39.588Z,24.33
2018-10-21T02:05:12.882Z,24.00
2018-10-21T02:07:45.840Z,28.30
2018-10-21T02:10:24.675Z,27.30
2018-10-21T02:12:58.068Z,28.30
2018-10-21T02:15:30.948Z,34.27
2018-10-21T02:18:03.974Z,65.33
2018-10-21T02:20:36.962Z,239.63
2018-10-21T02:23:10.584Z,349.10
2018-10-21T02:25:43.710Z,301.60
2018-10-21T02:28:16.492Z,289.80
2018-10-21T02:30:49.337Z,201.10
2018-10-21T02:33:22.520Z,135.37
2018-10-21T02:35:56.116Z,83.97
2018-10-21T02:38:29.068Z,49.80
2018-10-21T02:41:43.982Z,38.40
2018-10-21T02:44:19.002Z,29.67
2018-10-21T02:46:53.359Z,26.27
2018-10-21T02:49:26.692Z,24.77
2018-10-21T02:52:13.848Z,23.50
2018-10-21T02:54:46.841Z,30.97
2018-10-21T02:57:19.763Z,24.60
2018-10-21T02:59:52.942Z,34.37
2018-10-21T03:02:26.225Z,28.27
2018-10-21T03:04:59.237Z,30.88
2018-10-21T03:07:32.403Z,27.17
2018-10-21T03:10:05.438Z,27.50
2018-10-21T03:12:38.430Z,31.57
2018-10-21T03:15:11.264Z,32.40
2018-10-21T03:17:44.110Z,29.93
2018-10-21T03:20:17.065Z,31.33
2018-10-21T03:22:49.798Z,26.40
2018-10-21T03:25:23.698Z,24.90
2018-10-21T03:27:56.935Z,24.47
2018-10-21T03:30:36.815Z,28.40
2018-10-21T03:33:10.720Z,27.70
2018-10-21T03:35:43.768Z,25.77
2018-10-21T03:38:16.463Z,27.43
2018-10-21T03:40:49.335Z,22.13
2018-10-21T03:43:22.113Z,23.57
2018-10-21T03:45:54.879Z,21.70
2018-10-21T03:48:27.776Z,19.80
2018-10-21T03:51:00.699Z,20.73
2018-10-21T03:53:38.621Z,22.97
2018-10-21T03:56:18.107Z,21.60
2018-10-21T03:58:50.775Z,23.33
2018-10-21T04:01:23.602Z,23.02
2018-10-21T04:03:57.206Z,23.83
2018-10-21T04:06:30.878Z,21.57
2018-10-21T04:09:04.289Z,21.20
2018-10-21T04:11:38.004Z,19.77
2018-10-21T04:14:11.471Z,18.10
2018-10-21T04:16:44.981Z,17.57
2018-10-21T04:19:18.450Z,21.20
2018-10-21T04:21:51.760Z,19.97
2018-10-21T04:24:25.141Z,18.82
2018-10-21T04:27:00.352Z,17.60
2018-10-21T04:29:33.866Z,15.80
2018-10-21T04:32:07.295Z,15.27
2018-10-21T04:34:40.933Z,18.67
2018-10-21T04:37:23.388Z,16.17
2018-10-21T04:40:08.931Z,16.47
2018-10-21T04:42:45.011Z,19.87
2018-10-21T04:45:20.114Z,16.07
2018-10-21T04:47:54.177Z,16.37
2018-10-21T04:50:27.421Z,16.57
2018-10-21T04:53:01.052Z,15.70
2018-10-21T04:55:34.593Z,16.60
2018-10-21T04:58:09.180Z,18.07
2018-10-21T05:00:42.519Z,18.03
2018-10-21T05:03:16.015Z,17.67
2018-10-21T05:05:53.266Z,15.87
2018-10-21T05:08:26.969Z,18.37
2018-10-21T05:11:00.325Z,16.07
2018-10-21T05:13:33.899Z,15.47
2018-10-21T05:16:07.636Z,15.43
2018-10-21T05:18:46.976Z,15.43
2018-10-21T05:21:20.431Z,15.95
2018-10-21T05:23:54.095Z,14.23
2018-10-21T05:26:27.504Z,11.40
2018-10-21T05:29:01.078Z,12.27
2018-10-21T05:31:40.366Z,12.73
2018-10-21T05:34:13.679Z,15.63
2018-10-21T05:36:47.425Z,35.90
2018-10-21T05:39:20.855Z,47.47
2018-10-21T05:41:54.416Z,33.63
2018-10-21T05:44:27.804Z,20.87
2018-10-21T05:47:01.666Z,16.23
2018-10-21T05:49:35.263Z,11.70
2018-10-21T05:52:09.152Z,11.97
2018-10-21T05:54:43.893Z,13.25
2018-10-21T05:57:17.504Z,11.97
2018-10-21T05:59:50.948Z,12.37
2018-10-21T06:02:24.250Z,16.07
2018-10-21T06:05:03.735Z,17.85
2018-10-21T06:07:37.737Z,15.07
2018-10-21T06:10:11.304Z,15.83
2018-10-21T06:12:44.673Z,15.70
2018-10-21T06:15:18.255Z,12.43
2018-10-21T06:17:51.667Z,13.80
2018-10-21T06:20:31.946Z,14.80
2018-10-21T06:23:05.076Z,15.93
2018-10-21T06:25:43.766Z,15.83
2018-10-21T06:28:17.058Z,18.85
2018-10-21T06:30:50.358Z,13.87
2018-10-21T06:33:23.899Z,16.80
2018-10-21T06:35:57.597Z,17.90
2018-10-21T06:38:31.149Z,17.57
2018-10-21T06:41:04.777Z,17.02
2018-10-21T06:43:38.339Z,16.80
2018-10-21T06:46:12.081Z,15.90
2018-10-21T06:48:45.857Z,16.37
2018-10-21T06:51:19.240Z,16.63
2018-10-21T06:53:56.598Z,17.87
2018-10-21T06:56:30.621Z,18.90
2018-10-21T06:59:04.320Z,17.13
2018-10-21T07:01:38.090Z,19.37
2018-10-21T07:04:11.716Z,19.90
2018-10-21T07:06:45.400Z,22.13
2018-10-21T07:09:19.033Z,19.63
2018-10-21T07:11:52.877Z,18.07
2018-10-21T07:14:27.734Z,19.97
2018-10-21T07:17:01.073Z,18.97
2018-10-21T07:19:34.706Z,23.07
2018-10-21T07:22:13.523Z,24.30
2018-10-21T07:24:46.775Z,28.73
2018-10-21T07:27:24.018Z,33.98
2018-10-21T07:29:57.128Z,27.90
2018-10-21T07:32:31.374Z,30.97
2018-10-21T07:36:32.870Z,35.60
2018-10-21T07:39:07.090Z,37.13
2018-10-21T07:41:40.066Z,34.47
2018-10-21T07:44:12.701Z,32.37
2018-10-21T07:46:45.689Z,36.07
2018-10-21T07:49:25.621Z,35.20
2018-10-21T07:51:58.373Z,35.33
2018-10-21T07:54:31.281Z,33.67
2018-10-21T07:57:04.237Z,32.27
2018-10-21T07:59:36.813Z,32.47
2018-10-21T08:02:09.597Z,36.23
2018-10-21T08:04:43.004Z,32.17
2018-10-21T08:07:25.085Z,32.73
2018-10-21T08:09:57.809Z,34.57
2018-10-21T08:12:34.939Z,30.17
2018-10-21T08:15:08.080Z,29.57
2018-10-21T08:17:40.846Z,31.70
2018-10-21T08:20:14.231Z,31.13
2018-10-21T08:22:47.096Z,32.93
2018-10-21T08:25:20.236Z,28.37
2018-10-21T08:27:55.282Z,29.83
2018-10-21T08:30:28.049Z,29.67
2018-10-21T08:33:00.867Z,26.57
2018-10-21T08:35:33.663Z,32.23
2018-10-21T08:38:11.861Z,25.23
2018-10-21T08:40:44.645Z,24.93
2018-10-21T08:43:17.389Z,21.03
2018-10-21T08:45:50.478Z,24.18
2018-10-21T08:48:23.545Z,21.53
2018-10-21T08:50:56.440Z,23.00
2018-10-21T08:53:32.820Z,23.07
2018-10-21T08:56:05.682Z,22.57
2018-10-21T08:58:38.824Z,20.80
2018-10-21T09:01:12.812Z,21.63
2018-10-21T09:03:46.983Z,21.60
2018-10-21T09:06:19.884Z,21.37
2018-10-21T09:08:52.604Z,21.83
2018-10-21T09:11:25.421Z,23.73
2018-10-21T09:13:58.109Z,24.27
2018-10-21T09:16:31.096Z,19.70
2018-10-21T09:19:04.009Z,25.30
2018-10-21T09:21:37.677Z,21.47
2018-10-21T09:24:10.825Z,20.07
2018-10-21T09:26:44.096Z,22.53
2018-10-21T09:29:17.482Z,25.27
2018-10-21T09:31:51.115Z,29.12
2018-10-21T09:34:24.011Z,30.90
2018-10-21T09:36:56.851Z,30.43
2018-10-21T09:39:29.813Z,33.87
2018-10-21T09:42:03.465Z,42.10
2018-10-21T09:44:40.418Z,36.37
2018-10-21T09:47:13.346Z,34.40
2018-10-21T09:49:46.219Z,30.17
2018-10-21T09:52:20.533Z,26.60
2018-10-21T09:54:55.693Z,30.32
2018-10-21T09:57:29.063Z,26.53
2018-10-21T10:00:02.715Z,28.70
2018-10-21T10:02:45.699Z,28.00
2018-10-21T10:05:19.595Z,30.72
2018-10-21T10:07:52.745Z,22.20
2018-10-21T10:10:26.376Z,21.87
2018-10-21T10:12:59.695Z,20.03
2018-10-21T10:15:32.660Z,19.83
2018-10-21T10:18:06.042Z,20.00
2018-10-21T10:20:39.019Z,21.50
2018-10-21T10:23:20.053Z,20.30
2018-10-21T10:25:56.339Z,21.30
2018-10-21T10:28:29.318Z,18.07
2018-10-21T10:31:02.527Z,21.13
2018-10-21T10:33:35.803Z,22.23
2018-10-21T10:36:08.598Z,21.77
2018-10-21T10:38:41.459Z,24.82
2018-10-21T10:41:14.710Z,26.93
2018-10-21T10:43:47.564Z,25.97
2018-10-21T10:46:20.848Z,26.73
2018-10-21T10:50:23.016Z,23.70
2018-10-21T10:52:55.669Z,28.13
2018-10-21T10:55:36.462Z,30.30
2018-10-21T10:58:09.382Z,27.77
2018-10-21T11:00:42.580Z,26.83
2018-10-21T11:03:15.548Z,25.80
2018-10-21T11:05:49.280Z,34.13
2018-10-21T11:08:22.150Z,37.30
2018-10-21T11:10:57.975Z,35.23
2018-10-21T11:13:32.765Z,29.15
2018-10-21T11:16:05.565Z,29.93
2018-10-21T11:18:38.685Z,28.60
2018-10-21T11:21:11.491Z,31.10
2018-10-21T11:23:44.608Z,36.28
2018-10-21T11:26:17.739Z,29.43
2018-10-21T11:28:50.572Z,36.63
2018-10-21T11:31:30.143Z,31.73
2018-10-21T11:34:12.191Z,43.17
2018-10-21T11:36:45.216Z,39.73
2018-10-21T11:39:18.158Z,41.00
2018-10-21T11:41:52.704Z,37.20
2018-10-21T11:44:30.462Z,38.00
2018-10-21T11:47:03.080Z,28.20
2018-10-21T11:49:36.189Z,26.30
2018-10-21T11:52:15.658Z,31.57
2018-10-21T11:54:48.641Z,29.67
2018-10-21T11:57:28.355Z,28.77
2018-10-21T12:00:01.190Z,24.20
2018-10-21T12:02:34.107Z,29.27
2018-10-21T12:05:07.003Z,23.80
2018-10-21T12:07:40.236Z,25.67
2018-10-21T12:10:13.024Z,36.13
2018-10-21T12:12:50.079Z,53.90
2018-10-21T12:15:41.206Z,31.10
2018-10-21T12:18:22.130Z,31.83
2018-10-21T12:23:48.732Z,29.73
2018-10-21T12:26:25.861Z,29.33
2018-10-21T12:29:06.744Z,29.60
2018-10-21T12:31:48.770Z,27.63
2018-10-21T12:34:29.176Z,28.53
2018-10-21T12:37:10.650Z,30.43
2018-10-21T12:39:52.994Z,28.73
2018-10-21T12:45:20.519Z,26.27
2018-10-21T12:50:56.833Z,26.87
2018-10-21T12:53:44.516Z,25.90
2018-10-21T12:56:51.635Z,19.37
2018-10-21T12:59:31.358Z,23.50
2018-10-21T13:02:22.835Z,20.73
2018-10-21T13:05:02.636Z,21.63
2018-10-21T13:07:38.256Z,20.73
2018-10-21T13:10:25.452Z,21.63
2018-10-21T13:13:17.410Z,22.97
2018-10-21T13:15:56.615Z,22.43
2018-10-21T13:18:34.628Z,26.07
2018-10-21T13:21:23.015Z,27.40
2018-10-21T13:24:00.145Z,20.97
2018-10-21T13:26:45.518Z,21.07
2018-10-21T13:29:32.925Z,25.30
2018-10-21T13:32:11.225Z,22.03
2018-10-21T13:34:49.066Z,27.23
2018-10-21T13:37:34.615Z,25.50
2018-10-21T13:40:16.031Z,22.07
2018-10-21T13:44:20.157Z,26.87
2018-10-21T13:47:00.043Z,21.40
2018-10-21T13:49:32.831Z,17.20
2018-10-21T13:52:07.319Z,19.20
2018-10-21T13:54:40.038Z,15.80
2018-10-21T13:57:12.592Z,20.13
2018-10-21T13:59:45.570Z,16.80
2018-10-21T14:02:20.733Z,25.23
2018-10-21T14:04:58.842Z,16.20
2018-10-21T14:07:34.590Z,16.47
2018-10-21T14:10:09.582Z,17.97
2018-10-21T14:12:49.055Z,19.77
2018-10-21T14:15:27.673Z,18.70
2018-10-21T14:18:02.072Z,21.03
2018-10-21T14:20:39.197Z,21.47
2018-10-21T14:23:20.283Z,20.43
2018-10-21T14:26:03.579Z,19.00
2018-10-21T14:28:45.643Z,16.30
2018-10-21T14:31:26.021Z,15.70
2018-10-21T14:34:09.595Z,15.07
2018-10-21T14:36:47.415Z,19.70
2018-10-21T14:39:30.205Z,16.27
2018-10-21T14:42:08.371Z,15.50
2018-10-21T14:44:44.665Z,21.07
2018-10-21T14:47:24.142Z,14.50
2018-10-21T14:49:58.482Z,14.43
2018-10-21T14:52:36.928Z,15.93
2018-10-21T14:55:15.115Z,16.00
2018-10-21T14:57:48.451Z,13.53
2018-10-21T15:00:31.793Z,17.27
2018-10-21T15:03:06.688Z,17.07
2018-10-21T15:05:39.816Z,15.87
2018-10-21T15:08:13.473Z,22.80
2018-10-21T15:10:53.278Z,12.40
2018-10-21T15:13:26.223Z,19.33
2018-10-21T15:16:01.094Z,13.93
2018-10-21T15:18:40.871Z,14.13
2018-10-21T15:21:16.457Z,13.67
2018-10-21T15:23:55.785Z,14.70
2018-10-21T15:26:38.528Z,12.30
2018-10-21T15:29:20.377Z,28.57
2018-10-21T15:32:03.781Z,9.90
2018-10-21T15:34:47.775Z,19.05
2018-10-21T15:37:29.971Z,19.60
2018-10-21T15:40:11.123Z,14.10
2018-10-21T15:42:53.201Z,11.27
2018-10-21T15:45:41.401Z,13.00
2018-10-21T15:48:25.860Z,16.13
2018-10-21T15:51:11.685Z,15.63
2018-10-21T15:53:54.732Z,15.37
2018-10-21T15:56:32.355Z,16.55
2018-10-21T15:59:25.113Z,12.47
2018-10-21T16:02:05.368Z,10.77
2018-10-21T16:04:44.871Z,13.50
2018-10-21T16:07:25.473Z,11.57
2018-10-21T16:10:05.622Z,10.33
2018-10-21T16:12:46.715Z,13.10
2018-10-21T16:15:31.918Z,14.57
2018-10-21T16:18:18.634Z,16.82
2018-10-21T16:20:56.381Z,20.40
2018-10-21T16:23:38.739Z,11.30
2018-10-21T16:26:30.166Z,7.63
2018-10-21T16:29:19.290Z,9.47
2018-10-21T16:32:00.090Z,12.53
2018-10-21T16:34:39.562Z,11.07
2018-10-21T16:37:22.475Z,14.37
2018-10-21T16:40:08.498Z,13.33
2018-10-21T16:43:02.647Z,12.07
2018-10-21T16:45:46.369Z,14.00
2018-10-21T16:48:51.391Z,11.17
2018-10-21T16:51:39.494Z,10.67
2018-10-21T16:54:20.172Z,11.20
2018-10-21T16:57:02.204Z,13.10
2018-10-21T16:59:41.240Z,19.37
2018-10-21T17:02:23.847Z,13.37
2018-10-21T17:05:06.261Z,12.03
2018-10-21T17:07:50.812Z,10.47
2018-10-21T17:10:31.146Z,11.73
2018-10-21T17:13:20.558Z,13.20
2018-10-21T17:18:45.380Z,21.67
2018-10-21T17:21:25.650Z,13.80
2018-10-21T17:23:58.743Z,10.73
2018-10-21T17:26:31.461Z,12.53
2018-10-21T17:29:04.781Z,12.40
2018-10-21T17:31:47.073Z,14.03
2018-10-21T17:34:20.613Z,8.20
2018-10-21T17:36:53.485Z,11.93
2018-10-21T17:39:26.398Z,8.47
2018-10-21T17:41:59.412Z,14.17
2018-10-21T17:44:32.215Z,10.27
2018-10-21T17:47:09.113Z,18.83
2018-10-21T17:49:42.056Z,15.35
2018-10-21T17:52:14.883Z,8.77
2018-10-21T17:54:47.957Z,14.53
2018-10-21T17:57:21.299Z,12.53
2018-10-21T17:59:54.126Z,12.17
2018-10-21T18:02:26.908Z,13.93
2018-10-21T18:04:59.739Z,16.80
2018-10-21T18:07:32.462Z,17.33
2018-10-21T18:10:05.831Z,12.90
2018-10-21T18:12:38.960Z,15.75
2018-10-21T18:15:21.234Z,11.47
2018-10-21T18:17:58.960Z,11.73
2018-10-21T18:20:31.754Z,10.03
2018-10-21T18:23:04.453Z,34.03
2018-10-21T18:25:37.524Z,12.50
2018-10-21T18:28:10.435Z,10.83
2018-10-21T18:30:43.265Z,11.53
2018-10-21T18:33:16.105Z,19.20
2018-10-21T18:35:49.352Z,10.40
2018-10-21T18:38:22.504Z,11.93
2018-10-21T18:40:55.495Z,10.33
2018-10-21T18:43:28.598Z,8.13
2018-10-21T18:46:01.673Z,7.90
2018-10-21T18:48:34.687Z,9.87
2018-10-21T18:51:07.838Z,13.47
2018-10-21T18:53:45.928Z,11.33
2018-10-21T18:56:18.923Z,9.40
2018-10-21T18:58:53.479Z,8.60
2018-10-21T19:01:26.212Z,12.23
2018-10-21T19:03:59.270Z,12.13
2018-10-21T19:06:32.093Z,12.13
2018-10-21T19:09:05.163Z,10.15
2018-10-21T19:11:38.002Z,13.47
2018-10-21T19:14:18.217Z,16.97
2018-10-21T19:16:51.022Z,12.23
2018-10-21T19:19:25.951Z,13.33
2018-10-21T19:21:59.045Z,14.63
2018-10-21T19:24:32.304Z,13.40
2018-10-21T19:27:07.332Z,14.57
2018-10-21T19:29:42.759Z,11.90
2018-10-21T19:32:15.621Z,10.70
2018-10-21T19:37:30.507Z,9.53
2018-10-21T19:40:04.927Z,16.50
2018-10-21T19:42:37.579Z,9.33
2018-10-21T19:45:18.213Z,7.47
2018-10-21T19:47:50.935Z,15.33
2018-10-21T19:50:23.783Z,9.30
2018-10-21T19:52:56.554Z,10.10
2018-10-21T19:55:29.726Z,10.30
2018-10-21T19:58:02.660Z,7.83
2018-10-21T20:00:36.182Z,8.20
2018-10-21T20:03:09.353Z,13.97
2018-10-21T20:05:42.413Z,11.35
2018-10-21T20:08:15.095Z,10.33
2018-10-21T20:10:48.075Z,9.10
2018-10-21T20:13:21.068Z,5.50
2018-10-21T20:15:54.318Z,13.07
2018-10-21T20:18:28.094Z,9.13
2018-10-21T20:21:01.456Z,10.23
2018-10-21T20:23:34.270Z,14.90
2018-10-21T20:26:07.130Z,11.10
2018-10-21T20:28:40.030Z,9.60
2018-10-21T20:31:13.550Z,8.30
2018-10-21T20:33:49.521Z,8.63
2018-10-21T20:36:22.842Z,7.77
2018-10-21T20:39:02.305Z,12.70
2018-10-21T20:41:40.847Z,8.63
2018-10-21T20:44:13.639Z,10.40
2018-10-21T20:49:41.804Z,9.93
2018-10-21T20:52:14.624Z,13.87
2018-10-21T20:54:48.935Z,10.97
2018-10-21T20:57:21.803Z,13.47
2018-10-21T20:59:54.578Z,15.37
2018-10-21T21:02:33.028Z,11.47
2018-10-21T21:05:05.869Z,11.50
2018-10-21T21:07:39.056Z,12.57
2018-10-21T21:10:13.893Z,13.93
2018-10-21T21:12:46.726Z,8.85
2018-10-21T21:15:19.699Z,12.63
2018-10-21T21:17:52.502Z,13.57
2018-10-21T21:20:25.361Z,17.20
2018-10-21T21:22:58.133Z,15.65
2018-10-21T21:25:30.978Z,13.13
2018-10-21T21:28:09.516Z,11.67
2018-10-21T21:30:42.389Z,11.50
2018-10-21T21:33:16.529Z,13.93
2018-10-21T21:35:49.768Z,31.13
2018-10-21T21:38:22.583Z,10.03
2018-10-21T21:40:56.178Z,13.67
2018-10-21T21:43:32.023Z,14.23
2018-10-21T21:46:05.360Z,12.13
2018-10-21T21:48:38.170Z,12.73
2018-10-21T21:51:11.820Z,11.87
2018-10-21T21:53:44.735Z,16.50
2018-10-21T21:56:24.383Z,14.80
2018-10-21T21:58:57.285Z,14.10
2018-10-21T22:01:30.238Z,14.27
2018-10-21T22:04:03.265Z,12.37
2018-10-21T22:06:36.326Z,11.00
2018-10-21T22:09:11.857Z,7.80
2018-10-21T22:11:47.914Z,11.00
2018-10-21T22:14:22.459Z,10.10
2018-10-21T22:16:56.192Z,11.97
2018-10-21T22:19:29.353Z,13.13
2018-10-21T22:22:06.899Z,13.67
2018-10-21T22:24:42.333Z,11.00
2018-10-21T22:27:15.558Z,12.63
2018-10-21T22:29:48.385Z,11.30
2018-10-21T22:32:21.454Z,7.80
2018-10-21T22:34:54.226Z,15.07
2018-10-21T22:37:27.145Z,11.47
2018-10-21T22:40:00.953Z,13.30
2018-10-21T22:42:40.562Z,13.33
2018-10-21T22:45:13.295Z,21.20
2018-10-21T22:47:46.718Z,11.90
2018-10-21T22:50:19.496Z,10.63
2018-10-21T22:52:52.329Z,11.37
2018-10-21T22:55:25.011Z,9.50
2018-10-21T22:58:03.764Z,11.33
2018-10-21T23:00:42.001Z,12.43
2018-10-21T23:03:15.032Z,8.40
2018-10-21T23:05:47.859Z,8.98
2018-10-21T23:08:21.073Z,10.47
2018-10-21T23:10:53.918Z,10.07
2018-10-21T23:13:26.943Z,13.27
2018-10-21T23:15:59.812Z,12.37
2018-10-21T23:18:37.003Z,10.03
2018-10-21T23:21:10.618Z,10.67
2018-10-21T23:23:45.097Z,11.20
2018-10-21T23:26:27.205Z,9.07
2018-10-21T23:29:02.511Z,11.13
2018-10-21T23:31:35.989Z,22.50
2018-10-21T23:34:09.753Z,11.80
2018-10-21T23:36:44.826Z,9.13
2018-10-21T23:39:19.722Z,12.47
2018-10-21T23:41:52.685Z,16.30
2018-10-21T23:44:25.685Z,17.87
2018-10-21T23:46:58.743Z,13.77
2018-10-21T23:49:32.475Z,19.13
2018-10-21T23:52:11.932Z,15.30
2018-10-21T23:54:45.071Z,17.90
2018-10-21T23:57:17.930Z,16.27
2018-10-21T23:59:50.828Z,21.57
